sensor_id;sensor_type;location;lat;lon;timestamp;temperature;humidity
52669;DHT22;59898;52.786;6.892;2022-11-15T00:01:55;8.10;99.90
52669;DHT22;59898;52.786;6.892;2022-11-15T00:05:16;8.00;99.90
52669;DHT22;59898;52.786;6.892;2022-11-15T00:08:37;8.00;99.90
52669;DHT22;59898;52.786;6.892;2022-11-15T00:11:57;8.80;99.90
52669;DHT22;59898;52.786;6.892;2022-11-15T00:15:18;8.00;99.90
52669;DHT22;59898;52.786;6.892;2022-11-15T00:18:39;8.00;99.90
52669;DHT22;59898;52.786;6.892;2022-11-15T00:21:59;8.00;99.90
52669;DHT22;59898;52.786;6.892;2022-11-15T00:25:20;8.00;99.90
52669;DHT22;59898;52.786;6.892;2022-11-15T00:28:42;8.00;99.90
52669;DHT22;59898;52.786;6.892;2022-11-15T00:32:02;8.10;99.90
52669;DHT22;59898;52.786;6.892;2022-11-15T00:35:23;8.10;99.90
52669;DHT22;59898;52.786;6.892;2022-11-15T00:38:44;8.10;99.90
52669;DHT22;59898;52.786;6.892;2022-11-15T00:42:04;8.10;99.90
52669;DHT22;59898;52.786;6.892;2022-11-15T00:45:25;8.10;99.90
52669;DHT22;59898;52.786;6.892;2022-11-15T00:48:46;8.10;99.90
52669;DHT22;59898;52.786;6.892;2022-11-15T00:52:07;8.10;99.90
52669;DHT22;59898;52.786;6.892;2022-11-15T00:55:28;8.10;99.90
52669;DHT22;59898;52.786;6.892;2022-11-15T00:58:48;8.50;99.90
52669;DHT22;59898;52.786;6.892;2022-11-15T01:02:09;8.10;99.90
52669;DHT22;59898;52.786;6.892;2022-11-15T01:05:30;9.00;99.90
52669;DHT22;59898;52.786;6.892;2022-11-15T01:08:50;8.20;99.90
52669;DHT22;59898;52.786;6.892;2022-11-15T01:12:11;8.20;99.90
52669;DHT22;59898;52.786;6.892;2022-11-15T01:15:32;8.20;99.90
52669;DHT22;59898;52.786;6.892;2022-11-15T01:18:52;8.20;99.90
52669;DHT22;59898;52.786;6.892;2022-11-15T01:22:13;8.90;99.90
52669;DHT22;59898;52.786;6.892;2022-11-15T01:25:34;8.40;99.90
52669;DHT22;59898;52.786;6.892;2022-11-15T01:28:54;8.20;99.90
52669;DHT22;59898;52.786;6.892;2022-11-15T01:32:15;8.20;99.90
52669;DHT22;59898;52.786;6.892;2022-11-15T01:35:38;8.20;99.90
52669;DHT22;59898;52.786;6.892;2022-11-15T01:39:00;8.20;99.90
52669;DHT22;59898;52.786;6.892;2022-11-15T01:42:20;8.20;99.90
52669;DHT22;59898;52.786;6.892;2022-11-15T01:45:41;8.20;99.90
52669;DHT22;59898;52.786;6.892;2022-11-15T01:49:09;8.20;99.90
52669;DHT22;59898;52.786;6.892;2022-11-15T01:52:33;8.20;99.90
52669;DHT22;59898;52.786;6.892;2022-11-15T01:55:55;8.20;99.90
52669;DHT22;59898;52.786;6.892;2022-11-15T01:59:16;8.20;99.90
52669;DHT22;59898;52.786;6.892;2022-11-15T02:02:37;8.30;99.90
52669;DHT22;59898;52.786;6.892;2022-11-15T02:05:58;8.20;99.90
52669;DHT22;59898;52.786;6.892;2022-11-15T02:09:19;8.20;99.90
52669;DHT22;59898;52.786;6.892;2022-11-15T02:12:41;8.30;99.90
52669;DHT22;59898;52.786;6.892;2022-11-15T02:27:07;8.30;99.90
52669;DHT22;59898;52.786;6.892;2022-11-15T02:30:42;8.30;99.90
52669;DHT22;59898;52.786;6.892;2022-11-15T02:34:11;8.30;99.90
52669;DHT22;59898;52.786;6.892;2022-11-15T02:37:42;8.40;99.90
52669;DHT22;59898;52.786;6.892;2022-11-15T02:41:24;8.30;99.90
52669;DHT22;59898;52.786;6.892;2022-11-15T02:44:47;8.40;99.90
52669;DHT22;59898;52.786;6.892;2022-11-15T02:48:09;8.40;99.90
52669;DHT22;59898;52.786;6.892;2022-11-15T02:51:32;8.40;99.90
52669;DHT22;59898;52.786;6.892;2022-11-15T02:54:58;8.40;99.90
52669;DHT22;59898;52.786;6.892;2022-11-15T03:06:24;8.40;99.90
52669;DHT22;59898;52.786;6.892;2022-11-15T03:09:53;8.40;99.90
52669;DHT22;59898;52.786;6.892;2022-11-15T03:17:38;8.40;99.90
52669;DHT22;59898;52.786;6.892;2022-11-15T03:21:04;8.40;99.90
52669;DHT22;59898;52.786;6.892;2022-11-15T03:24:27;8.40;99.90
52669;DHT22;59898;52.786;6.892;2022-11-15T03:27:50;8.40;99.90
52669;DHT22;59898;52.786;6.892;2022-11-15T03:31:14;8.40;99.90
52669;DHT22;59898;52.786;6.892;2022-11-15T03:38:25;8.40;99.90
52669;DHT22;59898;52.786;6.892;2022-11-15T03:42:12;8.50;99.90
52669;DHT22;59898;52.786;6.892;2022-11-15T03:45:49;8.50;99.90
52669;DHT22;59898;52.786;6.892;2022-11-15T03:49:22;8.50;99.90
52669;DHT22;59898;52.786;6.892;2022-11-15T03:52:47;8.50;99.90
52669;DHT22;59898;52.786;6.892;2022-11-15T03:56:08;8.50;99.90
52669;DHT22;59898;52.786;6.892;2022-11-15T03:59:29;8.50;99.90
52669;DHT22;59898;52.786;6.892;2022-11-15T04:02:49;8.50;99.90
52669;DHT22;59898;52.786;6.892;2022-11-15T04:06:10;8.60;99.90
52669;DHT22;59898;52.786;6.892;2022-11-15T04:09:30;8.60;99.90
52669;DHT22;59898;52.786;6.892;2022-11-15T04:12:51;8.60;99.90
52669;DHT22;59898;52.786;6.892;2022-11-15T04:16:12;8.60;99.90
52669;DHT22;59898;52.786;6.892;2022-11-15T04:19:32;9.00;99.90
52669;DHT22;59898;52.786;6.892;2022-11-15T04:23:14;8.60;99.90
52669;DHT22;59898;52.786;6.892;2022-11-15T04:26:54;8.70;99.90
52669;DHT22;59898;52.786;6.892;2022-11-15T04:30:15;8.70;99.90
52669;DHT22;59898;52.786;6.892;2022-11-15T04:33:35;8.70;99.90
52669;DHT22;59898;52.786;6.892;2022-11-15T04:36:56;8.80;99.90
52669;DHT22;59898;52.786;6.892;2022-11-15T04:40:32;8.80;99.90
52669;DHT22;59898;52.786;6.892;2022-11-15T04:43:52;8.90;99.90
52669;DHT22;59898;52.786;6.892;2022-11-15T04:47:13;9.00;99.90
52669;DHT22;59898;52.786;6.892;2022-11-15T04:50:34;9.00;99.90
52669;DHT22;59898;52.786;6.892;2022-11-15T04:53:54;9.00;99.90
52669;DHT22;59898;52.786;6.892;2022-11-15T04:57:15;9.00;99.90
52669;DHT22;59898;52.786;6.892;2022-11-15T05:00:36;9.10;99.90
52669;DHT22;59898;52.786;6.892;2022-11-15T05:03:56;9.10;99.90
52669;DHT22;59898;52.786;6.892;2022-11-15T05:07:35;9.20;99.90
52669;DHT22;59898;52.786;6.892;2022-11-15T05:10:56;9.20;99.90
52669;DHT22;59898;52.786;6.892;2022-11-15T05:14:17;9.20;99.90
52669;DHT22;59898;52.786;6.892;2022-11-15T05:17:37;9.30;99.90
52669;DHT22;59898;52.786;6.892;2022-11-15T05:21:05;9.20;99.90
52669;DHT22;59898;52.786;6.892;2022-11-15T05:24:26;9.30;99.90
52669;DHT22;59898;52.786;6.892;2022-11-15T05:27:47;9.30;99.90
52669;DHT22;59898;52.786;6.892;2022-11-15T05:31:13;9.30;99.90
52669;DHT22;59898;52.786;6.892;2022-11-15T05:34:34;9.60;99.90
52669;DHT22;59898;52.786;6.892;2022-11-15T05:37:55;9.30;99.90
52669;DHT22;59898;52.786;6.892;2022-11-15T05:41:20;9.40;99.90
52669;DHT22;59898;52.786;6.892;2022-11-15T05:44:44;9.50;99.90
52669;DHT22;59898;52.786;6.892;2022-11-15T05:48:08;9.50;99.90
52669;DHT22;59898;52.786;6.892;2022-11-15T05:51:29;9.60;99.90
52669;DHT22;59898;52.786;6.892;2022-11-15T05:54:51;9.60;99.90
52669;DHT22;59898;52.786;6.892;2022-11-15T05:58:12;9.60;99.90
52669;DHT22;59898;52.786;6.892;2022-11-15T06:01:33;9.60;99.90
52669;DHT22;59898;52.786;6.892;2022-11-15T06:04:54;9.70;99.90
52669;DHT22;59898;52.786;6.892;2022-11-15T06:08:14;9.70;99.90
52669;DHT22;59898;52.786;6.892;2022-11-15T06:11:35;9.80;99.90
52669;DHT22;59898;52.786;6.892;2022-11-15T06:14:56;9.90;99.90
52669;DHT22;59898;52.786;6.892;2022-11-15T06:18:16;9.90;99.90
52669;DHT22;59898;52.786;6.892;2022-11-15T06:21:37;10.00;99.90
52669;DHT22;59898;52.786;6.892;2022-11-15T06:24:58;10.00;99.90
52669;DHT22;59898;52.786;6.892;2022-11-15T06:28:18;10.20;99.90
52669;DHT22;59898;52.786;6.892;2022-11-15T06:31:39;10.10;99.90
52669;DHT22;59898;52.786;6.892;2022-11-15T06:35:00;10.20;99.90
52669;DHT22;59898;52.786;6.892;2022-11-15T06:38:20;10.20;99.90
52669;DHT22;59898;52.786;6.892;2022-11-15T06:41:41;10.30;99.90
52669;DHT22;59898;52.786;6.892;2022-11-15T06:45:02;10.30;99.90
52669;DHT22;59898;52.786;6.892;2022-11-15T06:48:23;10.40;99.90
52669;DHT22;59898;52.786;6.892;2022-11-15T06:51:44;10.30;99.90
52669;DHT22;59898;52.786;6.892;2022-11-15T06:55:05;10.40;99.90
52669;DHT22;59898;52.786;6.892;2022-11-15T06:58:26;10.50;99.90
52669;DHT22;59898;52.786;6.892;2022-11-15T07:01:46;10.50;99.90
52669;DHT22;59898;52.786;6.892;2022-11-15T07:05:07;10.50;99.90
52669;DHT22;59898;52.786;6.892;2022-11-15T07:08:28;10.50;99.90
52669;DHT22;59898;52.786;6.892;2022-11-15T07:11:49;10.60;99.90
52669;DHT22;59898;52.786;6.892;2022-11-15T07:15:10;10.60;99.90
52669;DHT22;59898;52.786;6.892;2022-11-15T07:18:31;10.60;99.90
52669;DHT22;59898;52.786;6.892;2022-11-15T07:21:53;10.70;99.90
52669;DHT22;59898;52.786;6.892;2022-11-15T07:25:14;10.70;99.90
52669;DHT22;59898;52.786;6.892;2022-11-15T07:28:35;10.70;99.90
52669;DHT22;59898;52.786;6.892;2022-11-15T07:31:56;10.80;99.90
52669;DHT22;59898;52.786;6.892;2022-11-15T07:35:17;10.80;99.90
52669;DHT22;59898;52.786;6.892;2022-11-15T07:38:37;10.80;99.90
52669;DHT22;59898;52.786;6.892;2022-11-15T07:41:59;10.80;99.90
52669;DHT22;59898;52.786;6.892;2022-11-15T07:45:45;10.90;99.90
52669;DHT22;59898;52.786;6.892;2022-11-15T07:49:06;10.90;99.90
52669;DHT22;59898;52.786;6.892;2022-11-15T07:52:27;10.90;99.90
52669;DHT22;59898;52.786;6.892;2022-11-15T07:55:47;10.90;99.90
52669;DHT22;59898;52.786;6.892;2022-11-15T07:59:08;10.90;99.90
52669;DHT22;59898;52.786;6.892;2022-11-15T08:02:28;11.00;99.90
52669;DHT22;59898;52.786;6.892;2022-11-15T08:05:52;11.00;99.90
52669;DHT22;59898;52.786;6.892;2022-11-15T08:09:13;11.20;99.90
52669;DHT22;59898;52.786;6.892;2022-11-15T08:12:34;11.10;99.90
52669;DHT22;59898;52.786;6.892;2022-11-15T08:16:02;11.10;99.90
52669;DHT22;59898;52.786;6.892;2022-11-15T08:19:23;11.10;99.90
52669;DHT22;59898;52.786;6.892;2022-11-15T08:22:44;11.10;99.90
52669;DHT22;59898;52.786;6.892;2022-11-15T08:26:04;11.10;99.90
52669;DHT22;59898;52.786;6.892;2022-11-15T08:29:25;11.10;99.90
52669;DHT22;59898;52.786;6.892;2022-11-15T08:32:47;11.20;99.90
52669;DHT22;59898;52.786;6.892;2022-11-15T08:36:15;11.20;99.90
52669;DHT22;59898;52.786;6.892;2022-11-15T08:39:36;11.20;99.90
52669;DHT22;59898;52.786;6.892;2022-11-15T08:42:56;11.20;99.90
52669;DHT22;59898;52.786;6.892;2022-11-15T08:46:19;11.20;99.90
52669;DHT22;59898;52.786;6.892;2022-11-15T08:49:39;11.20;99.90
52669;DHT22;59898;52.786;6.892;2022-11-15T08:53:07;11.20;99.90
52669;DHT22;59898;52.786;6.892;2022-11-15T08:56:28;11.30;99.90
52669;DHT22;59898;52.786;6.892;2022-11-15T08:59:49;11.20;99.90
52669;DHT22;59898;52.786;6.892;2022-11-15T09:03:10;11.30;99.90
52669;DHT22;59898;52.786;6.892;2022-11-15T09:06:31;11.30;99.90
52669;DHT22;59898;52.786;6.892;2022-11-15T09:09:51;11.30;99.90
52669;DHT22;59898;52.786;6.892;2022-11-15T09:13:12;11.30;99.90
52669;DHT22;59898;52.786;6.892;2022-11-15T09:16:34;11.30;99.90
52669;DHT22;59898;52.786;6.892;2022-11-15T09:19:54;11.30;99.90
52669;DHT22;59898;52.786;6.892;2022-11-15T09:23:15;11.30;99.90
52669;DHT22;59898;52.786;6.892;2022-11-15T09:26:36;11.30;99.90
52669;DHT22;59898;52.786;6.892;2022-11-15T09:29:56;10.30;99.90
52669;DHT22;59898;52.786;6.892;2022-11-15T09:33:17;11.30;99.90
52669;DHT22;59898;52.786;6.892;2022-11-15T09:36:38;11.40;99.90
52669;DHT22;59898;52.786;6.892;2022-11-15T09:39:58;11.40;99.90
52669;DHT22;59898;52.786;6.892;2022-11-15T09:50:50;11.50;99.90
52669;DHT22;59898;52.786;6.892;2022-11-15T09:58:00;11.50;99.90
52669;DHT22;59898;52.786;6.892;2022-11-15T10:01:48;11.50;99.90
52669;DHT22;59898;52.786;6.892;2022-11-15T10:05:12;11.60;99.90
52669;DHT22;59898;52.786;6.892;2022-11-15T10:08:52;11.50;99.90
52669;DHT22;59898;52.786;6.892;2022-11-15T10:12:14;11.50;99.90
52669;DHT22;59898;52.786;6.892;2022-11-15T10:15:44;11.50;99.90
52669;DHT22;59898;52.786;6.892;2022-11-15T10:23:02;11.50;99.90
52669;DHT22;59898;52.786;6.892;2022-11-15T10:26:26;11.50;99.90
52669;DHT22;59898;52.786;6.892;2022-11-15T10:29:49;11.50;99.90
52669;DHT22;59898;52.786;6.892;2022-11-15T10:36:58;11.60;99.90
52669;DHT22;59898;52.786;6.892;2022-11-15T10:40:24;12.00;99.90
52669;DHT22;59898;52.786;6.892;2022-11-15T10:43:45;11.60;99.90
52669;DHT22;59898;52.786;6.892;2022-11-15T10:47:24;11.70;99.90
52669;DHT22;59898;52.786;6.892;2022-11-15T10:50:46;11.70;99.90
52669;DHT22;59898;52.786;6.892;2022-11-15T10:54:12;11.80;99.90
52669;DHT22;59898;52.786;6.892;2022-11-15T10:57:36;11.80;99.90
52669;DHT22;59898;52.786;6.892;2022-11-15T11:01:13;11.80;99.90
52669;DHT22;59898;52.786;6.892;2022-11-15T11:04:50;11.10;99.90
52669;DHT22;59898;52.786;6.892;2022-11-15T11:11:48;12.10;99.90
52669;DHT22;59898;52.786;6.892;2022-11-15T11:15:12;12.30;99.90
52669;DHT22;59898;52.786;6.892;2022-11-15T11:18:54;12.40;99.90
52669;DHT22;59898;52.786;6.892;2022-11-15T11:26:10;12.90;99.90
52669;DHT22;59898;52.786;6.892;2022-11-15T11:29:41;13.00;99.90
52669;DHT22;59898;52.786;6.892;2022-11-15T11:33:16;13.00;99.90
52669;DHT22;59898;52.786;6.892;2022-11-15T11:36:53;13.00;99.90
52669;DHT22;59898;52.786;6.892;2022-11-15T11:40:30;13.10;99.90
52669;DHT22;59898;52.786;6.892;2022-11-15T11:48:23;13.40;99.90
52669;DHT22;59898;52.786;6.892;2022-11-15T11:54:52;13.30;99.90
52669;DHT22;59898;52.786;6.892;2022-11-15T12:01:49;13.50;99.90
52669;DHT22;59898;52.786;6.892;2022-11-15T12:05:27;13.40;99.90
52669;DHT22;59898;52.786;6.892;2022-11-15T12:15:47;13.40;99.90
52669;DHT22;59898;52.786;6.892;2022-11-15T12:19:09;13.40;99.90
52669;DHT22;59898;52.786;6.892;2022-11-15T12:26:34;13.50;99.90
52669;DHT22;59898;52.786;6.892;2022-11-15T12:30:00;13.40;99.90
52669;DHT22;59898;52.786;6.892;2022-11-15T12:33:40;13.40;99.90
52669;DHT22;59898;52.786;6.892;2022-11-15T12:37:01;13.40;99.90
52669;DHT22;59898;52.786;6.892;2022-11-15T12:40:35;13.50;99.90
52669;DHT22;59898;52.786;6.892;2022-11-15T12:43:57;13.50;99.90
52669;DHT22;59898;52.786;6.892;2022-11-15T12:47:25;13.70;99.90
52669;DHT22;59898;52.786;6.892;2022-11-15T12:57:42;13.90;99.90
52669;DHT22;59898;52.786;6.892;2022-11-15T13:01:05;13.90;99.90
52669;DHT22;59898;52.786;6.892;2022-11-15T13:04:27;13.70;99.90
52669;DHT22;59898;52.786;6.892;2022-11-15T13:11:43;13.70;99.90
52669;DHT22;59898;52.786;6.892;2022-11-15T13:18:39;13.80;99.90
52669;DHT22;59898;52.786;6.892;2022-11-15T13:22:04;13.80;99.90
52669;DHT22;59898;52.786;6.892;2022-11-15T13:29:28;13.80;99.90
52669;DHT22;59898;52.786;6.892;2022-11-15T13:32:51;13.80;99.90
52669;DHT22;59898;52.786;6.892;2022-11-15T13:36:22;13.80;99.90
52669;DHT22;59898;52.786;6.892;2022-11-15T13:39:43;13.90;99.90
52669;DHT22;59898;52.786;6.892;2022-11-15T13:46:44;14.00;99.90
52669;DHT22;59898;52.786;6.892;2022-11-15T13:50:05;14.00;99.90
52669;DHT22;59898;52.786;6.892;2022-11-15T13:53:26;13.90;99.90
52669;DHT22;59898;52.786;6.892;2022-11-15T13:56:51;13.90;99.90
52669;DHT22;59898;52.786;6.892;2022-11-15T14:00:26;13.90;99.90
52669;DHT22;59898;52.786;6.892;2022-11-15T14:03:58;14.00;99.90
52669;DHT22;59898;52.786;6.892;2022-11-15T14:07:22;14.00;99.90
52669;DHT22;59898;52.786;6.892;2022-11-15T14:10:43;14.00;99.90
52669;DHT22;59898;52.786;6.892;2022-11-15T14:21:05;13.80;99.90
52669;DHT22;59898;52.786;6.892;2022-11-15T14:24:30;13.80;99.90
52669;DHT22;59898;52.786;6.892;2022-11-15T14:31:43;13.70;99.90
52669;DHT22;59898;52.786;6.892;2022-11-15T14:35:12;13.60;99.90
52669;DHT22;59898;52.786;6.892;2022-11-15T14:38:33;13.50;99.90
52669;DHT22;59898;52.786;6.892;2022-11-15T14:41:56;13.50;99.90
52669;DHT22;59898;52.786;6.892;2022-11-15T14:45:19;13.40;99.90
52669;DHT22;59898;52.786;6.892;2022-11-15T14:48:40;13.40;99.90
52669;DHT22;59898;52.786;6.892;2022-11-15T14:52:01;13.30;99.90
52669;DHT22;59898;52.786;6.892;2022-11-15T14:55:27;13.20;99.90
52669;DHT22;59898;52.786;6.892;2022-11-15T14:58:49;13.20;99.90
52669;DHT22;59898;52.786;6.892;2022-11-15T15:02:24;13.10;99.90
52669;DHT22;59898;52.786;6.892;2022-11-15T15:05:45;13.10;99.90
52669;DHT22;59898;52.786;6.892;2022-11-15T15:09:05;13.00;99.90
52669;DHT22;59898;52.786;6.892;2022-11-15T15:12:26;13.00;99.90
52669;DHT22;59898;52.786;6.892;2022-11-15T15:15:47;12.90;99.90
52669;DHT22;59898;52.786;6.892;2022-11-15T15:19:08;12.90;99.90
52669;DHT22;59898;52.786;6.892;2022-11-15T15:22:30;12.90;99.90
52669;DHT22;59898;52.786;6.892;2022-11-15T15:25:51;12.80;99.90
52669;DHT22;59898;52.786;6.892;2022-11-15T15:29:13;12.80;99.90
52669;DHT22;59898;52.786;6.892;2022-11-15T15:32:34;12.70;99.90
52669;DHT22;59898;52.786;6.892;2022-11-15T15:35:54;12.60;99.90
52669;DHT22;59898;52.786;6.892;2022-11-15T15:39:15;12.60;99.90
52669;DHT22;59898;52.786;6.892;2022-11-15T15:42:36;12.50;99.90
52669;DHT22;59898;52.786;6.892;2022-11-15T15:45:56;12.50;99.90
52669;DHT22;59898;52.786;6.892;2022-11-15T15:49:17;12.50;99.90
52669;DHT22;59898;52.786;6.892;2022-11-15T15:52:38;12.40;99.90
52669;DHT22;59898;52.786;6.892;2022-11-15T15:55:58;12.40;99.90
52669;DHT22;59898;52.786;6.892;2022-11-15T15:59:19;12.30;99.90
52669;DHT22;59898;52.786;6.892;2022-11-15T16:02:40;12.30;99.90
52669;DHT22;59898;52.786;6.892;2022-11-15T16:06:01;12.30;99.90
52669;DHT22;59898;52.786;6.892;2022-11-15T16:09:24;12.20;99.90
52669;DHT22;59898;52.786;6.892;2022-11-15T16:13:03;12.10;99.90
52669;DHT22;59898;52.786;6.892;2022-11-15T16:16:24;12.10;99.90
52669;DHT22;59898;52.786;6.892;2022-11-15T16:19:45;12.00;99.90
52669;DHT22;59898;52.786;6.892;2022-11-15T16:23:08;12.00;99.90
52669;DHT22;59898;52.786;6.892;2022-11-15T16:26:29;11.90;99.90
52669;DHT22;59898;52.786;6.892;2022-11-15T16:29:50;11.90;99.90
52669;DHT22;59898;52.786;6.892;2022-11-15T16:33:11;11.90;99.90
52669;DHT22;59898;52.786;6.892;2022-11-15T16:36:35;11.80;99.90
52669;DHT22;59898;52.786;6.892;2022-11-15T16:39:56;11.80;99.90
52669;DHT22;59898;52.786;6.892;2022-11-15T16:43:17;11.80;99.90
52669;DHT22;59898;52.786;6.892;2022-11-15T16:46:41;11.80;99.90
52669;DHT22;59898;52.786;6.892;2022-11-15T16:50:02;11.80;99.90
52669;DHT22;59898;52.786;6.892;2022-11-15T16:53:23;11.80;99.90
52669;DHT22;59898;52.786;6.892;2022-11-15T16:56:44;11.70;99.90
52669;DHT22;59898;52.786;6.892;2022-11-15T17:00:05;11.70;99.90
52669;DHT22;59898;52.786;6.892;2022-11-15T17:03:26;11.70;99.90
52669;DHT22;59898;52.786;6.892;2022-11-15T17:06:47;11.70;99.90
52669;DHT22;59898;52.786;6.892;2022-11-15T17:10:10;11.70;99.90
52669;DHT22;59898;52.786;6.892;2022-11-15T17:13:31;11.70;99.90
52669;DHT22;59898;52.786;6.892;2022-11-15T17:16:53;11.70;99.90
52669;DHT22;59898;52.786;6.892;2022-11-15T17:20:15;11.70;99.90
52669;DHT22;59898;52.786;6.892;2022-11-15T17:23:36;11.70;99.90
52669;DHT22;59898;52.786;6.892;2022-11-15T17:26:57;11.70;99.90
52669;DHT22;59898;52.786;6.892;2022-11-15T17:30:18;11.60;99.90
52669;DHT22;59898;52.786;6.892;2022-11-15T17:33:40;11.60;99.90
52669;DHT22;59898;52.786;6.892;2022-11-15T17:37:00;11.60;99.90
52669;DHT22;59898;52.786;6.892;2022-11-15T17:40:21;11.60;99.90
52669;DHT22;59898;52.786;6.892;2022-11-15T17:43:42;11.60;99.90
52669;DHT22;59898;52.786;6.892;2022-11-15T17:47:03;11.60;99.90
52669;DHT22;59898;52.786;6.892;2022-11-15T17:50:24;11.50;99.90
52669;DHT22;59898;52.786;6.892;2022-11-15T17:53:45;11.60;99.90
52669;DHT22;59898;52.786;6.892;2022-11-15T17:57:06;11.50;99.90
52669;DHT22;59898;52.786;6.892;2022-11-15T18:00:27;11.50;99.90
52669;DHT22;59898;52.786;6.892;2022-11-15T18:03:48;11.50;99.90
52669;DHT22;59898;52.786;6.892;2022-11-15T18:07:09;12.00;99.90
52669;DHT22;59898;52.786;6.892;2022-11-15T18:10:31;11.60;99.90
52669;DHT22;59898;52.786;6.892;2022-11-15T18:13:55;11.60;99.90
52669;DHT22;59898;52.786;6.892;2022-11-15T18:17:16;11.50;99.90
52669;DHT22;59898;52.786;6.892;2022-11-15T18:20:38;11.60;99.90
52669;DHT22;59898;52.786;6.892;2022-11-15T18:24:00;11.60;99.90
52669;DHT22;59898;52.786;6.892;2022-11-15T18:27:21;11.60;99.90
52669;DHT22;59898;52.786;6.892;2022-11-15T18:30:42;11.70;99.90
52669;DHT22;59898;52.786;6.892;2022-11-15T18:34:02;11.60;99.90
52669;DHT22;59898;52.786;6.892;2022-11-15T18:37:23;11.60;99.90
52669;DHT22;59898;52.786;6.892;2022-11-15T18:40:44;11.60;99.90
52669;DHT22;59898;52.786;6.892;2022-11-15T18:44:04;11.60;99.90
52669;DHT22;59898;52.786;6.892;2022-11-15T18:47:26;11.60;99.90
52669;DHT22;59898;52.786;6.892;2022-11-15T18:50:49;11.60;99.90
52669;DHT22;59898;52.786;6.892;2022-11-15T18:54:11;11.60;99.90
52669;DHT22;59898;52.786;6.892;2022-11-15T18:57:32;11.60;99.90
52669;DHT22;59898;52.786;6.892;2022-11-15T19:00:59;11.60;99.90
52669;DHT22;59898;52.786;6.892;2022-11-15T19:04:20;11.50;99.90
52669;DHT22;59898;52.786;6.892;2022-11-15T19:07:41;11.50;99.90
52669;DHT22;59898;52.786;6.892;2022-11-15T19:11:11;11.50;99.90
52669;DHT22;59898;52.786;6.892;2022-11-15T19:14:32;11.50;99.90
52669;DHT22;59898;52.786;6.892;2022-11-15T19:17:53;11.50;99.90
52669;DHT22;59898;52.786;6.892;2022-11-15T19:21:14;11.50;99.90
52669;DHT22;59898;52.786;6.892;2022-11-15T19:24:34;11.50;99.90
52669;DHT22;59898;52.786;6.892;2022-11-15T19:27:55;11.50;99.90
52669;DHT22;59898;52.786;6.892;2022-11-15T19:31:16;11.50;99.90
52669;DHT22;59898;52.786;6.892;2022-11-15T19:34:37;11.40;99.90
52669;DHT22;59898;52.786;6.892;2022-11-15T19:38:01;11.50;99.90
52669;DHT22;59898;52.786;6.892;2022-11-15T19:41:23;11.40;99.90
52669;DHT22;59898;52.786;6.892;2022-11-15T19:44:43;11.40;99.90
52669;DHT22;59898;52.786;6.892;2022-11-15T19:48:04;11.40;99.90
52669;DHT22;59898;52.786;6.892;2022-11-15T19:51:27;11.40;99.90
52669;DHT22;59898;52.786;6.892;2022-11-15T19:54:49;11.40;99.90
52669;DHT22;59898;52.786;6.892;2022-11-15T19:58:10;11.40;99.90
52669;DHT22;59898;52.786;6.892;2022-11-15T20:01:33;11.50;99.90
52669;DHT22;59898;52.786;6.892;2022-11-15T20:04:55;11.50;99.90
52669;DHT22;59898;52.786;6.892;2022-11-15T20:08:16;11.70;99.90
52669;DHT22;59898;52.786;6.892;2022-11-15T20:11:36;11.60;99.90
52669;DHT22;59898;52.786;6.892;2022-11-15T20:14:58;11.70;99.90
52669;DHT22;59898;52.786;6.892;2022-11-15T20:18:20;11.70;99.90
52669;DHT22;59898;52.786;6.892;2022-11-15T20:21:41;11.80;99.90
52669;DHT22;59898;52.786;6.892;2022-11-15T20:25:03;11.80;99.90
52669;DHT22;59898;52.786;6.892;2022-11-15T20:28:25;11.80;99.90
52669;DHT22;59898;52.786;6.892;2022-11-15T20:31:46;11.90;99.90
52669;DHT22;59898;52.786;6.892;2022-11-15T20:35:07;11.90;99.90
52669;DHT22;59898;52.786;6.892;2022-11-15T20:38:28;11.90;99.90
52669;DHT22;59898;52.786;6.892;2022-11-15T20:41:48;11.90;99.90
52669;DHT22;59898;52.786;6.892;2022-11-15T20:45:09;11.90;99.90
52669;DHT22;59898;52.786;6.892;2022-11-15T20:48:30;12.00;99.90
52669;DHT22;59898;52.786;6.892;2022-11-15T20:51:51;12.00;99.90
52669;DHT22;59898;52.786;6.892;2022-11-15T20:55:11;12.00;99.90
52669;DHT22;59898;52.786;6.892;2022-11-15T20:58:33;12.00;99.90
52669;DHT22;59898;52.786;6.892;2022-11-15T21:01:54;12.00;99.90
52669;DHT22;59898;52.786;6.892;2022-11-15T21:05:15;12.00;99.90
52669;DHT22;59898;52.786;6.892;2022-11-15T21:08:36;12.00;99.90
52669;DHT22;59898;52.786;6.892;2022-11-15T21:12:16;11.90;99.90
52669;DHT22;59898;52.786;6.892;2022-11-15T21:15:38;11.90;99.90
52669;DHT22;59898;52.786;6.892;2022-11-15T21:18:59;11.80;99.90
52669;DHT22;59898;52.786;6.892;2022-11-15T21:22:19;11.70;99.90
52669;DHT22;59898;52.786;6.892;2022-11-15T21:25:40;11.70;99.90
52669;DHT22;59898;52.786;6.892;2022-11-15T21:29:01;11.50;99.90
52669;DHT22;59898;52.786;6.892;2022-11-15T21:32:22;11.40;99.90
52669;DHT22;59898;52.786;6.892;2022-11-15T21:35:42;11.30;99.90
52669;DHT22;59898;52.786;6.892;2022-11-15T21:39:03;11.10;99.90
52669;DHT22;59898;52.786;6.892;2022-11-15T21:42:24;11.10;99.90
52669;DHT22;59898;52.786;6.892;2022-11-15T21:45:56;11.00;99.90
52669;DHT22;59898;52.786;6.892;2022-11-15T21:49:16;11.00;99.90
52669;DHT22;59898;52.786;6.892;2022-11-15T21:52:37;11.00;99.90
52669;DHT22;59898;52.786;6.892;2022-11-15T21:55:59;11.00;99.90
52669;DHT22;59898;52.786;6.892;2022-11-15T21:59:20;11.00;99.90
52669;DHT22;59898;52.786;6.892;2022-11-15T22:02:40;11.00;99.90
52669;DHT22;59898;52.786;6.892;2022-11-15T22:06:01;11.00;99.90
52669;DHT22;59898;52.786;6.892;2022-11-15T22:09:22;11.00;99.90
52669;DHT22;59898;52.786;6.892;2022-11-15T22:12:42;11.00;99.90
52669;DHT22;59898;52.786;6.892;2022-11-15T22:16:03;11.00;99.90
52669;DHT22;59898;52.786;6.892;2022-11-15T22:19:24;11.00;99.90
52669;DHT22;59898;52.786;6.892;2022-11-15T22:22:44;11.00;99.90
52669;DHT22;59898;52.786;6.892;2022-11-15T22:26:06;11.00;99.90
52669;DHT22;59898;52.786;6.892;2022-11-15T22:29:27;11.00;99.90
52669;DHT22;59898;52.786;6.892;2022-11-15T22:32:48;11.00;99.90
52669;DHT22;59898;52.786;6.892;2022-11-15T22:36:11;11.00;99.90
52669;DHT22;59898;52.786;6.892;2022-11-15T22:39:32;11.00;99.90
52669;DHT22;59898;52.786;6.892;2022-11-15T22:42:52;11.00;99.90
52669;DHT22;59898;52.786;6.892;2022-11-15T22:46:13;11.00;99.90
52669;DHT22;59898;52.786;6.892;2022-11-15T22:49:34;11.10;99.90
52669;DHT22;59898;52.786;6.892;2022-11-15T22:52:54;11.10;99.90
52669;DHT22;59898;52.786;6.892;2022-11-15T22:56:15;11.10;99.90
52669;DHT22;59898;52.786;6.892;2022-11-15T22:59:36;11.10;99.90
52669;DHT22;59898;52.786;6.892;2022-11-15T23:02:56;11.00;99.90
52669;DHT22;59898;52.786;6.892;2022-11-15T23:06:17;11.00;99.90
52669;DHT22;59898;52.786;6.892;2022-11-15T23:09:38;11.10;99.90
52669;DHT22;59898;52.786;6.892;2022-11-15T23:13:10;11.00;99.90
52669;DHT22;59898;52.786;6.892;2022-11-15T23:16:37;11.10;99.90